Time;durP1;ratioP1;P1;durP2;ratioP2;P2;SDS_P1;SDS_P2;PMS_P1;PMS_P2;Temp;Humidity;BMP_temperature;BMP_pressure;BME280_temperature;BME280_humidity;BME280_pressure;Samples;Min_cycle;Max_cycle;Signal;HPM_P1;HPM_P2
2021/01/12 00:02:24;;;;;;;6.03;4.70;;;;;;;5.89;94.35;100538.44;5033941;28;20033;-71
2021/01/12 00:04:51;;;;;;;2.92;1.20;;;;;;;5.87;93.83;100510.97;5034084;28;20026;-74
2021/01/12 00:07:24;;;;;;;4.78;1.33;;;;;;;5.95;93.38;100523.41;5033938;28;20036;-74
2021/01/12 00:09:50;;;;;;;6.88;1.33;;;;;;;5.86;93.36;100501.50;5033618;28;20511;-74
2021/01/12 00:12:20;;;;;;;8.80;1.48;;;;;;;5.96;92.98;100548.25;5033663;28;20025;-72
2021/01/12 00:14:46;;;;;;;6.97;1.58;;;;;;;5.97;93.29;100541.47;5015683;28;20388;-74
2021/01/12 00:17:12;;;;;;;11.35;1.60;;;;;;;5.96;92.95;100532.88;5033697;28;20517;-75
2021/01/12 00:19:38;;;;;;;10.43;1.75;;;;;;;5.97;93.30;100534.63;5033604;28;20033;-72
2021/01/12 00:22:07;;;;;;;18.10;2.95;;;;;;;5.86;93.62;100507.53;5033666;28;20550;-74
2021/01/12 00:24:34;;;;;;;16.00;4.47;;;;;;;5.96;93.35;100514.06;5033686;28;20716;-74
2021/01/12 00:27:01;;;;;;;19.13;6.47;;;;;;;5.94;93.53;100503.72;5033234;28;20039;-73
2021/01/12 00:29:26;;;;;;;22.15;7.18;;;;;;;5.97;93.50;100509.00;5033241;28;20061;-75
2021/01/12 00:31:51;;;;;;;21.35;6.38;;;;;;;5.77;94.36;100458.31;5032852;28;20056;-75
2021/01/12 00:34:17;;;;;;;18.35;6.00;;;;;;;5.97;94.42;100480.81;5033612;28;20533;-75
2021/01/12 00:36:44;;;;;;;15.32;4.75;;;;;;;5.92;94.15;100489.94;5033320;28;20479;-75
2021/01/12 00:39:10;;;;;;;34.80;9.63;;;;;;;5.89;93.87;100479.50;5033036;28;20395;-74
2021/01/12 00:41:36;;;;;;;42.90;12.60;;;;;;;5.92;94.25;100479.69;5033190;28;20038;-74
2021/01/12 00:44:06;;;;;;;23.02;5.57;;;;;;;5.91;94.00;100464.25;5032702;28;20464;-75
2021/01/12 00:46:33;;;;;;;15.02;4.32;;;;;;;5.89;94.32;100441.06;5033299;28;20017;-75
2021/01/12 00:48:58;;;;;;;13.52;4.03;;;;;;;5.88;94.39;100423.06;5032784;28;20514;-72
2021/01/12 00:51:37;;;;;;;26.20;8.40;;;;;;;5.88;94.56;100421.41;5032501;28;20021;-75
2021/01/12 00:54:11;;;;;;;23.30;7.80;;;;;;;5.85;94.98;100410.97;5032564;28;20506;-75
2021/01/12 00:56:37;;;;;;;15.63;7.72;;;;;;;5.79;95.02;100403.81;5032671;28;20038;-75
2021/01/12 00:59:03;;;;;;;6.82;3.13;;;;;;;5.72;95.15;100416.19;5032933;28;20036;-76
2021/01/12 01:01:29;;;;;;;12.00;4.25;;;;;;;5.67;95.14;100398.03;5032793;28;20032;-74
2021/01/12 01:03:55;;;;;;;7.05;2.67;;;;;;;5.75;95.53;100413.81;5033099;28;20029;-77
2021/01/12 01:06:21;;;;;;;17.00;6.03;;;;;;;5.73;95.47;100416.31;5032908;28;20127;-75
2021/01/12 01:08:47;;;;;;;19.05;7.30;;;;;;;5.75;95.48;100439.44;5015000;28;20511;-75
2021/01/12 01:11:13;;;;;;;8.80;3.67;;;;;;;5.80;95.37;100441.44;5032350;28;20079;-75
2021/01/12 01:13:38;;;;;;;6.63;2.28;;;;;;;5.83;95.14;100448.41;5032565;28;20029;-75
2021/01/12 01:16:04;;;;;;;7.35;3.08;;;;;;;5.76;95.11;100431.84;5032876;28;20041;-75
2021/01/12 01:18:29;;;;;;;4.82;2.28;;;;;;;5.71;95.63;100445.16;5032090;28;20472;-73
2021/01/12 01:20:55;;;;;;;2.95;2.10;;;;;;;5.52;95.90;100421.09;4997691;28;20056;-76
2021/01/12 01:23:20;;;;;;;5.15;3.13;;;;;;;5.66;96.06;100457.75;5032050;28;20079;-76
2021/01/12 01:25:46;;;;;;;7.18;6.25;;;;;;;5.58;96.31;100449.63;5032440;28;20033;-72
2021/01/12 01:28:12;;;;;;;5.30;3.95;;;;;;;5.66;96.20;100471.41;5032248;28;20055;-75
2021/01/12 01:30:37;;;;;;;2.55;1.48;;;;;;;5.70;96.19;100479.28;5032364;28;20037;-75
2021/01/12 01:33:03;;;;;;;2.88;1.90;;;;;;;5.64;96.34;100473.00;5032492;28;20029;-72
2021/01/12 01:35:29;;;;;;;11.88;4.40;;;;;;;5.62;96.47;100461.81;5032029;28;20586;-75
2021/01/12 01:37:54;;;;;;;5.55;3.72;;;;;;;5.56;97.17;100466.56;5032237;28;20093;-72
2021/01/12 01:40:22;;;;;;;5.22;2.10;;;;;;;5.50;97.23;100463.66;5031458;28;20033;-70
2021/01/12 01:42:48;;;;;;;8.05;4.22;;;;;;;5.40;97.63;100441.75;5032236;28;20025;-69
2021/01/12 01:45:14;;;;;;;5.13;2.33;;;;;;;5.45;97.73;100440.34;5032168;28;20029;-73
2021/01/12 01:47:42;;;;;;;11.30;9.13;;;;;;;5.20;98.07;100407.34;5031556;28;20388;-73
2021/01/12 01:50:15;;;;;;;29.00;26.35;;;;;;;5.40;98.33;100436.66;5031927;28;20029;-73
2021/01/12 01:52:43;;;;;;;13.02;10.75;;;;;;;5.25;98.76;100397.38;5031158;28;20030;-72
2021/01/12 01:55:08;;;;;;;7.47;3.78;;;;;;;5.46;98.70;100423.31;5031999;28;20013;-73
2021/01/12 01:57:34;;;;;;;2.30;1.80;;;;;;;5.33;98.86;100406.38;5031931;28;20087;-73
2021/01/12 02:00:02;;;;;;;5.13;3.05;;;;;;;4.72;98.81;100296.28;5031386;28;20458;-72
2021/01/12 02:02:28;;;;;;;5.80;2.08;;;;;;;5.25;99.05;100395.69;5028452;28;20029;-73
2021/01/12 02:05:00;;;;;;;7.00;3.22;;;;;;;5.28;99.68;100395.88;5029302;28;20095;-74
2021/01/12 02:07:27;;;;;;;8.98;3.40;;;;;;;5.30;98.95;100386.59;5002798;28;20215;-72
2021/01/12 02:09:54;;;;;;;11.68;8.65;;;;;;;5.27;99.16;100389.00;5029213;28;20025;-71
2021/01/12 02:12:27;;;;;;;4.70;2.10;;;;;;;5.27;99.40;100406.91;5029098;28;20026;-73
2021/01/12 02:14:53;;;;;;;3.88;3.05;;;;;;;5.33;99.40;100414.03;5029152;28;20466;-71
2021/01/12 02:17:19;;;;;;;16.63;15.10;;;;;;;5.21;99.06;100385.19;5028892;28;20043;-72
2021/01/12 02:19:45;;;;;;;5.82;4.90;;;;;;;5.36;99.28;100398.88;5026140;28;20823;-73
2021/01/12 02:22:19;;;;;;;5.60;5.05;;;;;;;5.40;98.93;100382.00;5027797;28;20606;-72
2021/01/12 02:24:45;;;;;;;3.85;1.58;;;;;;;5.27;98.81;100365.06;5027343;28;20117;-70
2021/01/12 02:27:11;;;;;;;2.60;1.50;;;;;;;5.23;99.31;100355.44;5018594;28;20413;-68
2021/01/12 02:29:36;;;;;;;4.07;1.90;;;;;;;5.23;99.12;100358.88;5025281;28;20076;-70
2021/01/12 02:32:02;;;;;;;6.75;2.92;;;;;;;5.23;99.27;100356.31;5028336;28;20112;-70
2021/01/12 02:34:29;;;;;;;6.95;3.65;;;;;;;5.26;99.00;100373.53;5029434;28;20945;-69
2021/01/12 02:36:56;;;;;;;7.28;5.57;;;;;;;5.22;99.24;100336.66;5029088;28;20033;-69
2021/01/12 02:39:22;;;;;;;2.20;1.70;;;;;;;4.98;99.00;100290.97;5029676;28;20041;-71
2021/01/12 02:41:47;;;;;;;4.70;2.65;;;;;;;5.13;99.51;100349.78;5031381;28;20459;-68
2021/01/12 02:44:24;;;;;;;2.28;1.48;;;;;;;5.18;99.40;100373.09;5031352;28;20400;-68
2021/01/12 02:46:52;;;;;;;8.85;7.72;;;;;;;5.10;99.79;100365.00;5031201;28;20021;-69
2021/01/12 02:49:17;;;;;;;6.70;4.65;;;;;;;5.23;99.65;100392.16;5031525;28;20064;-68
2021/01/12 02:51:43;;;;;;;9.88;6.68;;;;;;;5.18;99.53;100399.59;5031819;28;20029;-68
2021/01/12 02:54:09;;;;;;;5.03;3.22;;;;;;;5.25;99.38;100425.53;5031505;28;20076;-71
2021/01/12 02:56:34;;;;;;;2.13;1.70;;;;;;;5.05;99.39;100396.22;5031727;28;20029;-68
2021/01/12 02:58:59;;;;;;;9.82;3.13;;;;;;;5.32;99.59;100443.00;5031232;28;20403;-69
2021/01/12 03:01:25;;;;;;;12.65;11.50;;;;;;;5.41;99.43;100442.63;5031526;28;20036;-70
2021/01/12 03:03:50;;;;;;;4.03;3.28;;;;;;;5.55;98.87;100436.63;5031276;28;20037;-71
2021/01/12 03:06:16;;;;;;;2.92;2.38;;;;;;;5.44;98.10;100412.97;5031766;28;20033;-67
2021/01/12 03:08:41;;;;;;;9.18;6.50;;;;;;;5.47;98.02;100386.66;5031394;28;20030;-68
2021/01/12 03:11:06;;;;;;;4.35;3.38;;;;;;;5.37;98.37;100349.44;5031616;28;20033;-69
2021/01/12 03:13:32;;;;;;;12.65;6.03;;;;;;;5.30;98.55;100355.88;5031918;28;20034;-70
2021/01/12 03:15:57;;;;;;;6.38;3.28;;;;;;;5.34;98.93;100385.09;5035547;28;20046;-67
2021/01/12 03:18:23;;;;;;;6.07;2.60;;;;;;;5.38;98.71;100401.50;5035580;28;20041;-69
2021/01/12 03:20:48;;;;;;;11.98;7.78;;;;;;;5.37;99.00;100392.97;5035316;28;20041;-70
2021/01/12 03:23:14;;;;;;;3.25;1.88;;;;;;;5.20;98.79;100351.03;5035312;28;20021;-68
2021/01/12 03:25:39;;;;;;;5.15;2.83;;;;;;;5.41;98.94;100381.19;5035320;28;20485;-70
2021/01/12 03:28:06;;;;;;;3.17;1.75;;;;;;;5.37;99.15;100385.28;5035061;28;20025;-67
2021/01/12 03:30:32;;;;;;;5.28;3.75;;;;;;;5.07;98.73;100333.22;5035161;28;20045;-67
2021/01/12 03:32:57;;;;;;;3.90;2.08;;;;;;;5.45;98.91;100383.16;5035508;28;20040;-67
2021/01/12 03:35:23;;;;;;;4.10;2.78;;;;;;;5.43;98.68;100354.00;5035110;28;20046;-71
2021/01/12 03:37:49;;;;;;;4.50;1.50;;;;;;;5.44;99.12;100325.06;5035075;28;20411;-71
2021/01/12 03:40:14;;;;;;;2.70;1.33;;;;;;;5.51;98.70;100322.03;5034819;28;20091;-73
2021/01/12 03:42:40;;;;;;;8.60;2.20;;;;;;;5.50;98.62;100305.78;5034653;28;20036;-71
2021/01/12 03:45:07;;;;;;;17.02;4.75;;;;;;;5.33;98.33;100258.78;5034711;28;20442;-70
2021/01/12 03:47:32;;;;;;;21.17;6.22;;;;;;;5.62;97.87;100284.19;5034904;28;20029;-71
2021/01/12 03:49:58;;;;;;;26.80;7.15;;;;;;;5.61;97.45;100287.56;5034800;28;20025;-69
2021/01/12 03:52:23;;;;;;;27.20;7.10;;;;;;;5.66;97.42;100284.44;5034752;28;20021;-70
2021/01/12 03:54:49;;;;;;;17.92;5.85;;;;;;;5.67;97.27;100263.16;5034917;28;20032;-68
2021/01/12 03:57:14;;;;;;;22.23;6.30;;;;;;;5.70;97.42;100271.81;5034950;28;20380;-72
2021/01/12 03:59:40;;;;;;;31.25;9.93;;;;;;;5.70;97.15;100254.75;5034329;28;20028;-68
2021/01/12 04:02:05;;;;;;;30.58;8.35;;;;;;;5.75;97.29;100249.88;4999727;28;20037;-70
2021/01/12 04:04:31;;;;;;;18.92;6.15;;;;;;;5.64;96.59;100229.69;5034389;28;20026;-73
2021/01/12 04:06:56;;;;;;;13.10;3.25;;;;;;;5.74;96.39;100258.38;5034638;28;20025;-72
2021/01/12 04:09:23;;;;;;;18.95;6.55;;;;;;;5.76;96.37;100270.44;5034315;28;20029;-72
2021/01/12 04:11:49;;;;;;;14.43;2.75;;;;;;;5.82;96.50;100282.72;5034533;28;20021;-71
2021/01/12 04:14:15;;;;;;;14.55;2.42;;;;;;;5.72;96.07;100273.66;5034335;28;20029;-72
2021/01/12 04:16:40;;;;;;;10.70;1.50;;;;;;;5.83;95.61;100294.69;5013523;28;20068;-68
2021/01/12 04:19:06;;;;;;;10.70;2.17;;;;;;;5.87;95.10;100281.28;5032857;28;20521;-72
2021/01/12 04:21:31;;;;;;;20.20;3.20;;;;;;;5.85;95.23;100261.50;5032426;28;20029;-71
2021/01/12 04:23:57;;;;;;;20.25;7.07;;;;;;;5.78;95.27;100240.69;5034091;28;20033;-70
2021/01/12 04:26:22;;;;;;;24.52;5.93;;;;;;;5.85;94.98;100259.81;5032979;28;20029;-69
2021/01/12 04:28:47;;;;;;;18.30;5.80;;;;;;;5.82;94.53;100257.97;5033820;28;20025;-72
2021/01/12 04:31:13;;;;;;;17.52;4.03;;;;;;;5.78;95.01;100258.63;5034392;28;20043;-72
2021/01/12 04:33:38;;;;;;;9.77;3.90;;;;;;;5.74;94.50;100258.38;5034156;28;20025;-72
2021/01/12 04:36:04;;;;;;;7.07;3.58;;;;;;;5.68;94.97;100258.91;5034151;28;20029;-69
2021/01/12 04:38:30;;;;;;;20.05;6.30;;;;;;;5.41;94.95;100232.69;5033575;28;20088;-71
2021/01/12 04:40:56;;;;;;;7.10;2.97;;;;;;;5.56;95.56;100274.50;5033741;28;20034;-73
2021/01/12 04:43:21;;;;;;;2.65;2.45;;;;;;;5.30;96.01;100255.19;5033584;28;20037;-68
2021/01/12 04:45:47;;;;;;;1.73;1.40;;;;;;;5.48;96.31;100301.38;5033592;28;20471;-72
2021/01/12 04:48:12;;;;;;;3.70;3.30;;;;;;;5.39;96.60;100303.44;5033847;28;20033;-71
2021/01/12 04:50:38;;;;;;;2.55;1.20;;;;;;;5.21;96.71;100293.94;5034044;28;20025;-69
2021/01/12 04:53:04;;;;;;;6.30;5.28;;;;;;;5.37;97.37;100298.25;5033443;28;20454;-71
2021/01/12 04:55:29;;;;;;;5.70;5.20;;;;;;;5.33;97.48;100279.28;5033731;28;20112;-75
2021/01/12 04:57:55;;;;;;;5.55;4.00;;;;;;;5.22;97.82;100262.44;5033288;28;20028;-72
2021/01/12 05:00:27;;;;;;;2.90;1.48;;;;;;;5.20;98.14;100248.66;5033262;28;20036;-68
2021/01/12 05:03:00;;;;;;;8.02;3.53;;;;;;;5.16;98.75;100251.88;5033543;28;20392;-69
2021/01/12 05:05:34;;;;;;;6.68;3.00;;;;;;;5.12;98.67;100240.59;5033577;28;20036;-69
2021/01/12 05:08:04;;;;;;;4.47;2.35;;;;;;;5.22;98.90;100221.50;5033206;28;20055;-74
2021/01/12 05:10:36;;;;;;;6.57;4.85;;;;;;;5.18;98.67;100220.44;5033033;28;20025;-71
2021/01/12 05:13:05;;;;;;;2.05;1.27;;;;;;;5.24;98.82;100236.94;4982092;28;20091;-69
2021/01/12 05:15:31;;;;;;;6.07;5.05;;;;;;;5.22;99.07;100251.31;4998215;28;20578;-70
2021/01/12 05:17:59;;;;;;;1.48;1.15;;;;;;;5.27;98.83;100229.41;5033295;28;20084;-69
2021/01/12 05:20:26;;;;;;;5.05;3.75;;;;;;;5.10;98.52;100185.00;5032758;28;20029;-67
2021/01/12 05:23:04;;;;;;;1.50;1.00;;;;;;;5.34;98.58;100191.41;5032942;28;20395;-68
2021/01/12 05:25:34;;;;;;;2.85;2.17;;;;;;;5.35;98.48;100188.06;5031985;28;20492;-67
2021/01/12 05:28:04;;;;;;;2.38;1.30;;;;;;;5.30;98.88;100194.63;5012995;28;20484;-70
2021/01/12 05:30:30;;;;;;;2.50;1.10;;;;;;;5.35;98.79;100193.19;5013018;28;20029;-71
2021/01/12 05:32:58;;;;;;;5.75;2.42;;;;;;;5.33;98.60;100158.06;5013302;28;20041;-72
2021/01/12 05:35:28;;;;;;;5.80;1.73;;;;;;;5.41;98.05;100192.63;5013158;28;20034;-71
2021/01/12 05:38:24;;;;;;;11.63;10.50;;;;;;;5.47;98.18;100213.44;5013032;28;20033;-69
2021/01/12 05:40:53;;;;;;;2.30;1.92;;;;;;;5.44;98.19;100197.03;4952265;29;20509;-69
2021/01/12 05:43:20;;;;;;;4.45;3.03;;;;;;;5.43;97.86;100179.91;4952380;29;20050;-71
2021/01/12 05:45:46;;;;;;;17.42;5.32;;;;;;;5.67;97.34;100239.25;4952155;29;20613;-71
2021/01/12 05:48:11;;;;;;;2.78;1.75;;;;;;;5.66;96.76;100253.72;4951831;29;20039;-71
2021/01/12 05:50:38;;;;;;;31.20;28.23;;;;;;;5.66;96.72;100256.28;4952120;28;20544;-71
2021/01/12 05:53:14;;;;;;;28.70;12.88;;;;;;;5.61;96.67;100250.03;4952205;29;20047;-69
2021/01/12 05:55:43;;;;;;;9.05;4.30;;;;;;;5.57;97.14;100243.00;4952429;29;20043;-68
2021/01/12 05:58:11;;;;;;;3.22;1.70;;;;;;;5.53;97.22;100233.38;4952331;29;20039;-69
2021/01/12 06:00:40;;;;;;;4.22;2.08;;;;;;;5.47;97.63;100222.78;4951971;29;20043;-69
2021/01/12 06:03:09;;;;;;;12.75;6.82;;;;;;;5.40;98.28;100219.03;4950940;28;20425;-72
2021/01/12 06:05:36;;;;;;;7.45;4.88;;;;;;;5.17;98.69;100169.16;4950707;29;20042;-71
2021/01/12 06:08:02;;;;;;;5.50;4.28;;;;;;;5.22;98.62;100201.03;4948311;29;20082;-71
2021/01/12 06:10:29;;;;;;;8.20;6.57;;;;;;;5.23;99.20;100220.66;4935749;29;20046;-74
2021/01/12 06:13:01;;;;;;;7.15;4.75;;;;;;;5.23;99.07;100228.34;4951987;29;20039;-71
2021/01/12 06:15:27;;;;;;;6.38;4.28;;;;;;;5.26;99.30;100235.31;4951739;29;20039;-72
2021/01/12 06:18:04;;;;;;;3.95;3.35;;;;;;;5.19;99.08;100232.41;4985200;28;20058;-71
2021/01/12 06:20:44;;;;;;;3.50;2.55;;;;;;;5.14;99.69;100222.75;5012161;28;20058;-68
2021/01/12 06:23:15;;;;;;;8.52;4.70;;;;;;;5.11;99.80;100238.81;5012265;28;20099;-69
2021/01/12 06:25:41;;;;;;;8.23;4.95;;;;;;;5.02;99.86;100246.88;5011866;28;20546;-70
2021/01/12 06:28:07;;;;;;;10.45;5.07;;;;;;;5.05;99.74;100233.34;5012218;28;20048;-68
2021/01/12 06:30:32;;;;;;;3.05;2.10;;;;;;;4.98;99.82;100237.22;4994574;28;20484;-69
2021/01/12 06:32:58;;;;;;;6.85;3.88;;;;;;;5.04;99.94;100248.63;5012402;28;20021;-68
2021/01/12 06:35:47;;;;;;;13.02;7.10;;;;;;;5.01;100.00;100255.31;5012240;28;20026;-74
2021/01/12 06:38:25;;;;;;;13.35;8.55;;;;;;;5.04;100.00;100267.41;4970697;28;20113;-68
2021/01/12 06:40:55;;;;;;;13.68;5.50;;;;;;;5.11;100.00;100268.63;4970768;28;20436;-69
2021/01/12 06:43:25;;;;;;;17.77;8.07;;;;;;;4.89;100.00;100230.75;4970737;28;20055;-71
2021/01/12 06:45:52;;;;;;;9.43;7.47;;;;;;;5.06;100.00;100265.81;4970748;28;20524;-68
2021/01/12 06:48:18;;;;;;;11.00;7.05;;;;;;;5.07;100.00;100272.72;4972946;28;20038;-71
2021/01/12 06:50:48;;;;;;;9.02;4.93;;;;;;;5.09;100.00;100270.22;4990006;28;20046;-68
2021/01/12 06:53:14;;;;;;;14.90;9.30;;;;;;;5.12;100.00;100272.94;4990084;28;20042;-72
2021/01/12 06:55:40;;;;;;;9.32;4.88;;;;;;;5.02;99.99;100259.66;4974050;28;20396;-72
2021/01/12 06:58:11;;;;;;;18.58;14.27;;;;;;;5.11;100.00;100258.38;4990057;28;20125;-68
2021/01/12 07:00:37;;;;;;;6.25;3.90;;;;;;;5.08;100.00;100248.00;4989837;28;20037;-68
2021/01/12 07:03:05;;;;;;;14.65;12.10;;;;;;;4.93;100.00;100207.09;4989707;28;20038;-70
2021/01/12 07:05:42;;;;;;;7.97;5.55;;;;;;;5.13;100.00;100226.97;4989861;28;20026;-67
2021/01/12 07:08:12;;;;;;;28.40;16.70;;;;;;;5.17;100.00;100228.00;4993540;28;20030;-73
2021/01/12 07:10:47;;;;;;;26.38;15.38;;;;;;;5.19;100.00;100217.06;5031592;28;20395;-74
2021/01/12 07:13:14;;;;;;;69.88;54.97;;;;;;;5.15;100.00;100204.91;5031305;28;20030;-68
2021/01/12 07:15:47;;;;;;;25.00;21.75;;;;;;;5.13;99.94;100186.03;5031149;28;20026;-69
2021/01/12 07:18:12;;;;;;;17.33;14.05;;;;;;;5.22;100.00;100189.88;5031569;28;20057;-69
2021/01/12 07:20:39;;;;;;;40.70;31.85;;;;;;;4.95;100.00;100142.44;5031374;28;20034;-68
2021/01/12 07:23:10;;;;;;;15.88;10.07;;;;;;;5.26;100.00;100176.44;5031476;28;20021;-71
2021/01/12 07:25:44;;;;;;;66.72;59.67;;;;;;;5.29;100.00;100166.38;5031499;28;20033;-72
2021/01/12 07:28:22;;;;;;;15.23;10.23;;;;;;;5.30;99.86;100158.78;5030989;28;20113;-68
2021/01/12 07:30:56;;;;;;;42.22;29.75;;;;;;;5.33;100.00;100158.06;5031106;28;20029;-70
2021/01/12 07:33:24;;;;;;;17.95;14.18;;;;;;;5.36;100.00;100153.13;5031152;28;20071;-69
2021/01/12 07:35:51;;;;;;;34.63;30.35;;;;;;;5.39;100.00;100142.16;5031073;28;20526;-68
2021/01/12 07:38:18;;;;;;;18.23;13.68;;;;;;;5.46;100.00;100131.44;5031051;28;20034;-68
2021/01/12 07:40:45;;;;;;;31.80;24.80;;;;;;;5.30;100.00;100094.78;5031062;28;20079;-74
2021/01/12 07:43:20;;;;;;;24.08;13.30;;;;;;;5.41;99.92;100105.59;5031308;28;20041;-75
2021/01/12 07:45:50;;;;;;;62.70;40.33;;;;;;;5.39;99.87;100088.41;5031398;28;20129;-69
2021/01/12 07:48:16;;;;;;;34.53;22.15;;;;;;;5.45;99.84;100096.41;5031852;28;20421;-71
2021/01/12 07:50:46;;;;;;;30.20;19.40;;;;;;;5.45;99.39;100098.97;5031263;28;20026;-70
2021/01/12 07:53:15;;;;;;;13.98;10.13;;;;;;;5.44;99.28;100103.19;5030365;28;20033;-71
2021/01/12 07:55:42;;;;;;;34.22;24.10;;;;;;;5.39;99.27;100088.41;5031148;28;20060;-71
2021/01/12 07:58:17;;;;;;;31.45;19.65;;;;;;;5.46;98.89;100098.16;5033299;28;20037;-73
2021/01/12 08:00:43;;;;;;;40.75;26.45;;;;;;;5.43;99.11;100104.00;5033453;28;20083;-70
2021/01/12 08:03:10;;;;;;;26.23;23.35;;;;;;;5.43;99.23;100103.09;5016159;28;20454;-74
2021/01/12 08:05:36;;;;;;;15.40;10.35;;;;;;;5.45;99.34;100104.06;5034308;28;20087;-71
2021/01/12 08:08:07;;;;;;;14.38;11.93;;;;;;;5.43;99.19;100092.88;5034654;28;20033;-71
2021/01/12 08:10:35;;;;;;;11.90;8.88;;;;;;;5.42;99.32;100089.44;5034483;28;20036;-70
2021/01/12 08:13:04;;;;;;;10.13;7.47;;;;;;;5.39;99.50;100081.59;5034513;28;20112;-69
2021/01/12 08:15:30;;;;;;;10.50;8.05;;;;;;;5.39;99.26;100084.16;5034202;28;20030;-72
2021/01/12 08:17:55;;;;;;;10.88;6.28;;;;;;;5.41;99.60;100087.69;5034209;28;20238;-71
2021/01/12 08:20:20;;;;;;;9.90;6.70;;;;;;;5.37;99.50;100093.44;5032930;28;20029;-68
2021/01/12 08:22:53;;;;;;;11.65;9.30;;;;;;;5.35;100.00;100082.25;5034577;28;20086;-68
2021/01/12 08:25:20;;;;;;;16.15;9.55;;;;;;;5.32;99.62;100093.19;5034126;28;20033;-70
2021/01/12 08:27:57;;;;;;;14.30;9.48;;;;;;;5.33;99.86;100115.44;5034291;28;20407;-72
2021/01/12 08:30:24;;;;;;;28.23;25.35;;;;;;;5.51;99.85;100153.03;5034022;28;20029;-74
2021/01/12 08:33:01;;;;;;;12.60;11.30;;;;;;;5.50;99.29;100143.59;5033723;28;20411;-70
2021/01/12 08:35:28;;;;;;;7.65;5.70;;;;;;;5.51;99.24;100133.44;5034176;28;20021;-72
2021/01/12 08:37:57;;;;;;;11.27;10.15;;;;;;;5.45;99.34;100130.53;5034096;28;20069;-68
2021/01/12 08:40:28;;;;;;;23.48;11.32;;;;;;;5.47;99.60;100116.16;5033954;28;20037;-72
2021/01/12 08:42:54;;;;;;;39.85;16.40;;;;;;;5.43;99.64;100087.75;5033822;28;20022;-70
2021/01/12 08:45:20;;;;;;;23.17;8.77;;;;;;;5.50;99.97;100077.03;5033672;28;20052;-68
2021/01/12 08:47:45;;;;;;;10.45;4.82;;;;;;;5.51;100.00;100076.22;5033937;28;20057;-68
2021/01/12 08:50:31;;;;;;;9.70;4.32;;;;;;;5.53;99.95;100069.47;5033671;28;20025;-70
2021/01/12 08:52:56;;;;;;;8.20;6.60;;;;;;;5.48;99.93;100087.19;4991756;28;20038;-70
2021/01/12 08:55:22;;;;;;;5.97;4.30;;;;;;;5.49;99.94;100098.31;4992053;28;20121;-69
2021/01/12 08:57:58;;;;;;;9.52;8.60;;;;;;;5.43;100.00;100075.84;4991781;28;20042;-70
2021/01/12 09:00:37;;;;;;;4.88;3.38;;;;;;;5.44;100.00;100092.94;4991840;28;20030;-71
2021/01/12 09:03:04;;;;;;;6.93;3.92;;;;;;;5.50;100.00;100084.72;4992044;28;20039;-68
2021/01/12 09:05:32;;;;;;;5.97;3.15;;;;;;;5.46;100.00;100082.81;4991956;28;20417;-71
2021/01/12 09:08:08;;;;;;;14.25;6.63;;;;;;;5.47;100.00;100074.28;4991540;28;20038;-71
2021/01/12 09:10:36;;;;;;;16.63;6.05;;;;;;;5.45;100.00;100060.56;4991783;28;20146;-70
2021/01/12 09:13:02;;;;;;;19.77;10.15;;;;;;;5.48;100.00;100060.69;4991208;28;20496;-72
2021/01/12 09:15:29;;;;;;;15.05;13.05;;;;;;;5.44;100.00;100069.03;4986958;28;20054;-67
2021/01/12 09:18:04;;;;;;;8.85;6.22;;;;;;;5.20;100.00;100023.47;4991552;28;20054;-69
2021/01/12 09:20:31;;;;;;;62.60;56.63;;;;;;;5.24;100.00;100012.56;4991338;28;20548;-72
2021/01/12 09:23:11;;;;;;;6.63;4.60;;;;;;;5.50;100.00;100043.75;4995573;28;20035;-71
2021/01/12 09:25:40;;;;;;;;;;;;;;;5.39;100.00;100061.09;5033620;28;20029;-74
2021/01/12 09:28:14;;;;;;;11.30;7.97;;;;;;;5.38;100.00;100068.72;5033184;28;19956;-74
2021/01/12 09:30:42;;;;;;;11.93;10.75;;;;;;;5.39;100.00;100073.03;5032549;28;20842;-71
2021/01/12 09:33:11;;;;;;;7.90;4.60;;;;;;;5.35;100.00;100072.88;5024977;28;20104;-71
2021/01/12 09:35:36;;;;;;;9.43;4.10;;;;;;;5.20;100.00;100038.81;5023597;28;20076;-71
2021/01/12 09:38:02;;;;;;;6.25;4.22;;;;;;;5.40;100.00;100080.78;5021513;28;20029;-69
2021/01/12 09:40:28;;;;;;;6.88;4.40;;;;;;;5.40;100.00;100077.38;5024701;28;20033;-68
2021/01/12 09:42:57;;;;;;;12.60;10.05;;;;;;;5.38;100.00;100054.22;5023225;28;20105;-71
2021/01/12 09:45:24;;;;;;;5.55;3.13;;;;;;;5.35;100.00;100051.53;5021426;28;20071;-68
2021/01/12 09:47:50;;;;;;;14.00;12.52;;;;;;;5.08;100.00;100008.34;5014419;28;20102;-70
2021/01/12 09:50:15;;;;;;;4.82;3.50;;;;;;;5.06;100.00;99998.84;5026490;28;20474;-68
2021/01/12 09:52:41;;;;;;;3.58;2.55;;;;;;;5.22;100.00;99996.28;5023549;28;20100;-71
2021/01/12 09:55:06;;;;;;;8.95;5.88;;;;;;;5.24;100.00;99973.31;5021904;28;20128;-69
2021/01/12 09:57:36;;;;;;;7.15;4.20;;;;;;;5.27;100.00;99983.69;5024047;28;20031;-68
2021/01/12 10:00:12;;;;;;;5.45;2.05;;;;;;;5.27;100.00;100001.63;5032368;28;20021;-68
2021/01/12 10:02:37;;;;;;;13.20;5.75;;;;;;;5.22;100.00;99988.59;4996705;28;20472;-72
2021/01/12 10:05:03;;;;;;;16.08;9.50;;;;;;;5.28;100.00;99991.47;5025946;28;20120;-69
2021/01/12 10:07:29;;;;;;;5.22;2.65;;;;;;;5.32;99.96;100011.28;5022190;28;20168;-69
2021/01/12 10:09:54;;;;;;;46.75;42.40;;;;;;;5.35;100.00;100008.00;5028136;28;20029;-72
2021/01/12 10:12:19;;;;;;;5.32;2.90;;;;;;;5.21;100.00;99976.59;5024115;28;20510;-75
2021/01/12 10:14:45;;;;;;;3.85;2.03;;;;;;;5.45;100.00;99994.84;5012039;28;20033;-74
2021/01/12 10:17:10;;;;;;;8.25;2.55;;;;;;;5.50;99.83;99990.84;5012678;28;20040;-73
2021/01/12 10:19:36;;;;;;;8.32;6.45;;;;;;;5.53;99.66;99989.25;4961585;28;20046;-71
2021/01/12 10:22:01;;;;;;;5.13;3.67;;;;;;;5.57;100.00;99981.81;5012471;28;20035;-76
2021/01/12 10:24:27;;;;;;;6.20;3.80;;;;;;;5.60;99.86;99981.94;5011607;28;20030;-72
2021/01/12 10:26:54;;;;;;;9.00;6.45;;;;;;;5.54;99.92;99958.59;5012251;28;20065;-74
2021/01/12 10:29:22;;;;;;;7.45;5.40;;;;;;;5.38;100.00;99940.72;5012584;28;20041;-74
2021/01/12 10:31:49;;;;;;;16.17;14.50;;;;;;;5.53;99.95;99961.94;5012524;28;20041;-76
2021/01/12 10:34:15;;;;;;;12.63;9.85;;;;;;;5.55;99.33;99975.72;5016285;28;20032;-72
2021/01/12 10:36:41;;;;;;;10.70;7.80;;;;;;;5.44;99.93;99995.66;5028941;28;20446;-75
2021/01/12 10:39:06;;;;;;;8.00;5.72;;;;;;;5.36;100.00;99986.72;5027662;28;20029;-72
2021/01/12 10:41:41;;;;;;;7.88;5.38;;;;;;;5.22;100.00;99985.16;5020290;28;20029;-71
2021/01/12 10:44:06;;;;;;;13.40;12.07;;;;;;;5.28;100.00;99981.25;5029650;28;20514;-73
2021/01/12 10:46:33;;;;;;;7.60;4.53;;;;;;;5.25;100.00;99957.16;5031559;28;20057;-73
2021/01/12 10:48:58;;;;;;;5.25;3.00;;;;;;;5.32;100.00;99964.31;4995950;28;20518;-74
2021/01/12 10:51:24;;;;;;;6.30;3.13;;;;;;;5.35;100.00;99942.31;5031250;28;20021;-76
2021/01/12 10:53:52;;;;;;;4.78;2.78;;;;;;;5.39;100.00;99947.59;5033539;28;20569;-77
2021/01/12 10:56:18;;;;;;;3.88;2.58;;;;;;;5.34;100.00;99947.38;5030126;28;20028;-73
2021/01/12 10:58:44;;;;;;;5.60;2.92;;;;;;;5.37;100.00;99949.19;5030877;28;20030;-75
2021/01/12 11:01:13;;;;;;;6.07;3.53;;;;;;;5.17;100.00;99910.69;5030979;28;20064;-75
2021/01/12 11:03:39;;;;;;;5.50;3.00;;;;;;;5.18;100.00;99907.34;5031184;28;20415;-70
2021/01/12 11:06:05;;;;;;;6.63;3.65;;;;;;;5.45;100.00;99920.63;5035834;28;20028;-72
2021/01/12 11:08:31;;;;;;;6.45;4.05;;;;;;;5.50;100.00;99913.16;5042493;28;20535;-71
2021/01/12 11:10:57;;;;;;;11.38;10.13;;;;;;;5.57;100.00;99902.41;5030646;28;20144;-70
2021/01/12 11:13:22;;;;;;;10.88;6.65;;;;;;;5.60;99.31;99897.44;5027899;28;20422;-67
2021/01/12 11:15:48;;;;;;;4.43;2.83;;;;;;;5.61;99.58;99896.63;5015323;28;20395;-67
2021/01/12 11:18:15;;;;;;;6.60;4.57;;;;;;;5.67;99.49;99885.81;5016404;28;20400;-73
2021/01/12 11:20:41;;;;;;;4.22;2.65;;;;;;;5.69;99.12;99880.75;5011109;28;20092;-71
2021/01/12 11:23:07;;;;;;;9.23;4.90;;;;;;;5.84;98.77;99889.16;5025088;28;20033;-71
2021/01/12 11:25:32;;;;;;;5.22;3.10;;;;;;;5.90;98.17;99889.44;5030540;28;20084;-70
2021/01/12 11:27:58;;;;;;;5.30;3.95;;;;;;;5.96;98.21;99876.03;5032031;28;20041;-71
2021/01/12 11:30:25;;;;;;;6.50;4.05;;;;;;;6.01;98.10;99859.22;5030564;28;20029;-68